sensor_id;sensor_type;location;lat;lon;timestamp;temperature;humidity
7194;DHT22;3638;48.820;9.244;2023-05-08T00:01:40;15.30;99.90
7194;DHT22;3638;48.820;9.244;2023-05-08T00:06:34;15.50;99.90
7194;DHT22;3638;48.820;9.244;2023-05-08T00:09:01;15.50;99.90
7194;DHT22;3638;48.820;9.244;2023-05-08T00:11:28;15.50;99.90
7194;DHT22;3638;48.820;9.244;2023-05-08T00:13:55;15.50;99.90
7194;DHT22;3638;48.820;9.244;2023-05-08T00:16:23;15.50;99.90
7194;DHT22;3638;48.820;9.244;2023-05-08T00:21:18;15.60;99.90
7194;DHT22;3638;48.820;9.244;2023-05-08T00:26:12;15.60;99.90
7194;DHT22;3638;48.820;9.244;2023-05-08T00:28:39;15.60;99.90
7194;DHT22;3638;48.820;9.244;2023-05-08T00:31:06;15.60;99.90
7194;DHT22;3638;48.820;9.244;2023-05-08T00:33:34;15.60;99.90
7194;DHT22;3638;48.820;9.244;2023-05-08T00:36:02;15.50;99.90
7194;DHT22;3638;48.820;9.244;2023-05-08T00:38:30;15.60;99.90
7194;DHT22;3638;48.820;9.244;2023-05-08T00:40:57;15.60;99.90
7194;DHT22;3638;48.820;9.244;2023-05-08T00:43:24;15.50;99.90
7194;DHT22;3638;48.820;9.244;2023-05-08T00:45:53;15.40;99.90
7194;DHT22;3638;48.820;9.244;2023-05-08T00:48:21;15.30;99.90
7194;DHT22;3638;48.820;9.244;2023-05-08T00:50:51;15.30;99.90
7194;DHT22;3638;48.820;9.244;2023-05-08T00:53:19;15.40;99.90
7194;DHT22;3638;48.820;9.244;2023-05-08T00:55:48;15.40;99.90
7194;DHT22;3638;48.820;9.244;2023-05-08T00:58:15;15.40;99.90
7194;DHT22;3638;48.820;9.244;2023-05-08T01:00:43;15.50;99.90
7194;DHT22;3638;48.820;9.244;2023-05-08T01:03:11;15.50;99.90
7194;DHT22;3638;48.820;9.244;2023-05-08T01:05:39;15.50;99.90
7194;DHT22;3638;48.820;9.244;2023-05-08T01:08:07;15.50;99.90
7194;DHT22;3638;48.820;9.244;2023-05-08T01:10:42;15.50;99.90
7194;DHT22;3638;48.820;9.244;2023-05-08T01:13:19;15.50;99.90
7194;DHT22;3638;48.820;9.244;2023-05-08T01:15:59;15.30;99.90
7194;DHT22;3638;48.820;9.244;2023-05-08T01:18:35;15.30;99.90
7194;DHT22;3638;48.820;9.244;2023-05-08T01:21:10;15.20;99.90
7194;DHT22;3638;48.820;9.244;2023-05-08T01:24:22;15.20;99.90
7194;DHT22;3638;48.820;9.244;2023-05-08T01:27:21;15.10;99.90
7194;DHT22;3638;48.820;9.244;2023-05-08T01:30:37;15.10;99.90
7194;DHT22;3638;48.820;9.244;2023-05-08T01:33:18;15.10;99.90
7194;DHT22;3638;48.820;9.244;2023-05-08T01:35:49;15.00;99.90
7194;DHT22;3638;48.820;9.244;2023-05-08T01:38:26;15.00;99.90
7194;DHT22;3638;48.820;9.244;2023-05-08T01:41:02;15.00;99.90
7194;DHT22;3638;48.820;9.244;2023-05-08T01:43:40;15.10;99.90
7194;DHT22;3638;48.820;9.244;2023-05-08T01:46:15;15.00;99.90
7194;DHT22;3638;48.820;9.244;2023-05-08T01:48:48;15.00;99.90
7194;DHT22;3638;48.820;9.244;2023-05-08T01:51:21;15.00;99.90
7194;DHT22;3638;48.820;9.244;2023-05-08T01:53:53;15.00;99.90
7194;DHT22;3638;48.820;9.244;2023-05-08T01:56:23;15.00;99.90
7194;DHT22;3638;48.820;9.244;2023-05-08T01:58:53;15.00;99.90
7194;DHT22;3638;48.820;9.244;2023-05-08T02:01:23;15.00;99.90
7194;DHT22;3638;48.820;9.244;2023-05-08T02:03:53;14.90;99.90
7194;DHT22;3638;48.820;9.244;2023-05-08T02:06:22;14.90;99.90
7194;DHT22;3638;48.820;9.244;2023-05-08T02:08:52;14.90;99.90
7194;DHT22;3638;48.820;9.244;2023-05-08T02:11:21;14.90;99.90
7194;DHT22;3638;48.820;9.244;2023-05-08T02:13:50;14.80;99.90
7194;DHT22;3638;48.820;9.244;2023-05-08T02:16:18;14.80;99.90
7194;DHT22;3638;48.820;9.244;2023-05-08T02:18:49;14.80;99.90
7194;DHT22;3638;48.820;9.244;2023-05-08T02:21:19;14.80;99.90
7194;DHT22;3638;48.820;9.244;2023-05-08T02:23:48;14.80;99.90
7194;DHT22;3638;48.820;9.244;2023-05-08T02:26:16;14.80;99.90
7194;DHT22;3638;48.820;9.244;2023-05-08T02:28:43;14.70;99.90
7194;DHT22;3638;48.820;9.244;2023-05-08T02:31:11;14.70;99.90
7194;DHT22;3638;48.820;9.244;2023-05-08T02:33:40;14.70;99.90
7194;DHT22;3638;48.820;9.244;2023-05-08T02:36:10;14.60;99.90
7194;DHT22;3638;48.820;9.244;2023-05-08T02:38:43;14.70;99.90
7194;DHT22;3638;48.820;9.244;2023-05-08T02:41:12;14.70;99.90
7194;DHT22;3638;48.820;9.244;2023-05-08T02:43:41;14.80;99.90
7194;DHT22;3638;48.820;9.244;2023-05-08T02:46:10;14.70;99.90
7194;DHT22;3638;48.820;9.244;2023-05-08T02:48:43;14.70;99.90
7194;DHT22;3638;48.820;9.244;2023-05-08T02:51:20;14.70;99.90
7194;DHT22;3638;48.820;9.244;2023-05-08T02:53:57;14.70;99.90
7194;DHT22;3638;48.820;9.244;2023-05-08T02:56:33;14.70;99.90
7194;DHT22;3638;48.820;9.244;2023-05-08T02:59:12;14.70;99.90
7194;DHT22;3638;48.820;9.244;2023-05-08T03:01:49;14.70;99.90
7194;DHT22;3638;48.820;9.244;2023-05-08T03:04:23;14.70;99.90
7194;DHT22;3638;48.820;9.244;2023-05-08T03:06:55;14.70;99.90
7194;DHT22;3638;48.820;9.244;2023-05-08T03:09:30;14.70;99.90
7194;DHT22;3638;48.820;9.244;2023-05-08T03:12:03;14.60;99.90
7194;DHT22;3638;48.820;9.244;2023-05-08T03:14:38;14.60;99.90
7194;DHT22;3638;48.820;9.244;2023-05-08T03:17:12;14.60;99.90
7194;DHT22;3638;48.820;9.244;2023-05-08T03:19:46;14.60;99.90
7194;DHT22;3638;48.820;9.244;2023-05-08T03:22:18;14.60;99.90
7194;DHT22;3638;48.820;9.244;2023-05-08T03:24:47;14.60;99.90
7194;DHT22;3638;48.820;9.244;2023-05-08T03:27:16;14.60;99.90
7194;DHT22;3638;48.820;9.244;2023-05-08T03:32:12;14.60;99.90
7194;DHT22;3638;48.820;9.244;2023-05-08T03:34:40;14.60;99.90
7194;DHT22;3638;48.820;9.244;2023-05-08T03:37:07;14.70;99.90
7194;DHT22;3638;48.820;9.244;2023-05-08T03:39:34;14.70;99.90
7194;DHT22;3638;48.820;9.244;2023-05-08T03:42:03;14.70;99.90
7194;DHT22;3638;48.820;9.244;2023-05-08T03:44:31;14.60;99.90
7194;DHT22;3638;48.820;9.244;2023-05-08T03:46:58;14.70;99.90
7194;DHT22;3638;48.820;9.244;2023-05-08T03:49:28;14.70;99.90
7194;DHT22;3638;48.820;9.244;2023-05-08T03:54:23;14.70;99.90
7194;DHT22;3638;48.820;9.244;2023-05-08T03:59:27;14.90;99.90
7194;DHT22;3638;48.820;9.244;2023-05-08T04:02:16;14.80;99.90
7194;DHT22;3638;48.820;9.244;2023-05-08T04:04:52;14.80;99.90
7194;DHT22;3638;48.820;9.244;2023-05-08T04:07:26;14.80;99.90
7194;DHT22;3638;48.820;9.244;2023-05-08T04:09:58;14.70;99.90
7194;DHT22;3638;48.820;9.244;2023-05-08T04:12:35;14.60;99.90
7194;DHT22;3638;48.820;9.244;2023-05-08T04:15:09;14.60;99.90
7194;DHT22;3638;48.820;9.244;2023-05-08T04:17:41;14.60;99.90
7194;DHT22;3638;48.820;9.244;2023-05-08T04:20:15;14.60;99.90
7194;DHT22;3638;48.820;9.244;2023-05-08T04:22:44;14.70;99.90
7194;DHT22;3638;48.820;9.244;2023-05-08T04:25:14;14.70;99.90
7194;DHT22;3638;48.820;9.244;2023-05-08T04:27:43;14.70;99.90
7194;DHT22;3638;48.820;9.244;2023-05-08T04:30:12;14.70;99.90
7194;DHT22;3638;48.820;9.244;2023-05-08T04:32:40;14.70;99.90
7194;DHT22;3638;48.820;9.244;2023-05-08T04:35:08;14.70;99.90
7194;DHT22;3638;48.820;9.244;2023-05-08T04:37:38;14.70;99.90
7194;DHT22;3638;48.820;9.244;2023-05-08T04:40:06;14.80;99.90
7194;DHT22;3638;48.820;9.244;2023-05-08T04:42:34;14.80;99.90
7194;DHT22;3638;48.820;9.244;2023-05-08T04:45:03;14.80;99.90
7194;DHT22;3638;48.820;9.244;2023-05-08T04:47:32;14.80;99.90
7194;DHT22;3638;48.820;9.244;2023-05-08T04:52:26;14.80;99.90
7194;DHT22;3638;48.820;9.244;2023-05-08T04:54:53;14.80;99.90
7194;DHT22;3638;48.820;9.244;2023-05-08T04:57:20;14.70;99.90
7194;DHT22;3638;48.820;9.244;2023-05-08T04:59:47;14.70;99.90
7194;DHT22;3638;48.820;9.244;2023-05-08T05:02:14;14.70;99.90
7194;DHT22;3638;48.820;9.244;2023-05-08T05:04:42;14.80;99.90
7194;DHT22;3638;48.820;9.244;2023-05-08T05:07:09;14.70;99.90
7194;DHT22;3638;48.820;9.244;2023-05-08T05:09:35;14.80;99.90
7194;DHT22;3638;48.820;9.244;2023-05-08T05:12:04;14.80;99.90
7194;DHT22;3638;48.820;9.244;2023-05-08T05:16:58;15.00;99.90
7194;DHT22;3638;48.820;9.244;2023-05-08T05:19:25;15.10;99.90
7194;DHT22;3638;48.820;9.244;2023-05-08T05:21:54;15.10;99.90
7194;DHT22;3638;48.820;9.244;2023-05-08T05:24:20;15.10;99.90
7194;DHT22;3638;48.820;9.244;2023-05-08T05:26:47;15.10;99.90
7194;DHT22;3638;48.820;9.244;2023-05-08T05:34:08;14.90;99.90
7194;DHT22;3638;48.820;9.244;2023-05-08T05:36:36;14.90;99.90
7194;DHT22;3638;48.820;9.244;2023-05-08T05:39:04;14.90;99.90
7194;DHT22;3638;48.820;9.244;2023-05-08T05:48:56;14.80;99.90
7194;DHT22;3638;48.820;9.244;2023-05-08T05:51:24;14.90;99.90
7194;DHT22;3638;48.820;9.244;2023-05-08T05:53:52;15.00;99.90
7194;DHT22;3638;48.820;9.244;2023-05-08T05:56:20;14.90;99.90
7194;DHT22;3638;48.820;9.244;2023-05-08T05:58:47;14.90;99.90
7194;DHT22;3638;48.820;9.244;2023-05-08T06:03:41;14.90;99.90
7194;DHT22;3638;48.820;9.244;2023-05-08T06:06:08;14.90;99.90
7194;DHT22;3638;48.820;9.244;2023-05-08T06:08:35;14.90;99.90
7194;DHT22;3638;48.820;9.244;2023-05-08T06:13:31;15.10;99.90
7194;DHT22;3638;48.820;9.244;2023-05-08T06:15:58;15.20;99.90
7194;DHT22;3638;48.820;9.244;2023-05-08T06:18:24;15.30;99.90
7194;DHT22;3638;48.820;9.244;2023-05-08T06:20:56;15.20;99.90
7194;DHT22;3638;48.820;9.244;2023-05-08T06:23:23;15.10;99.90
7194;DHT22;3638;48.820;9.244;2023-05-08T06:28:17;14.90;99.90
7194;DHT22;3638;48.820;9.244;2023-05-08T06:30:46;15.00;99.90
7194;DHT22;3638;48.820;9.244;2023-05-08T06:33:12;15.10;99.90
7194;DHT22;3638;48.820;9.244;2023-05-08T06:35:39;15.10;99.90
7194;DHT22;3638;48.820;9.244;2023-05-08T06:38:06;15.20;99.90
7194;DHT22;3638;48.820;9.244;2023-05-08T06:40:33;15.30;99.90
7194;DHT22;3638;48.820;9.244;2023-05-08T06:43:00;15.30;99.90
7194;DHT22;3638;48.820;9.244;2023-05-08T06:45:26;15.20;99.90
7194;DHT22;3638;48.820;9.244;2023-05-08T06:47:55;15.20;99.90
7194;DHT22;3638;48.820;9.244;2023-05-08T06:50:22;15.30;99.90
7194;DHT22;3638;48.820;9.244;2023-05-08T06:55:16;15.40;99.90
7194;DHT22;3638;48.820;9.244;2023-05-08T06:57:43;15.50;99.90
7194;DHT22;3638;48.820;9.244;2023-05-08T07:00:11;15.70;99.90
7194;DHT22;3638;48.820;9.244;2023-05-08T07:02:38;15.90;99.90
7194;DHT22;3638;48.820;9.244;2023-05-08T07:05:07;16.10;99.90
7194;DHT22;3638;48.820;9.244;2023-05-08T07:07:35;16.20;99.90
7194;DHT22;3638;48.820;9.244;2023-05-08T07:10:02;16.20;99.90
7194;DHT22;3638;48.820;9.244;2023-05-08T07:12:29;16.30;99.90
7194;DHT22;3638;48.820;9.244;2023-05-08T07:14:56;16.20;99.90
7194;DHT22;3638;48.820;9.244;2023-05-08T07:19:50;16.00;99.90
7194;DHT22;3638;48.820;9.244;2023-05-08T07:22:18;15.80;99.90
7194;DHT22;3638;48.820;9.244;2023-05-08T07:24:45;15.80;99.90
7194;DHT22;3638;48.820;9.244;2023-05-08T07:27:12;15.90;99.90
7194;DHT22;3638;48.820;9.244;2023-05-08T07:29:39;16.00;99.90
7194;DHT22;3638;48.820;9.244;2023-05-08T07:32:07;15.90;99.90
7194;DHT22;3638;48.820;9.244;2023-05-08T07:39:30;15.80;99.90
7194;DHT22;3638;48.820;9.244;2023-05-08T07:41:57;15.80;99.90
7194;DHT22;3638;48.820;9.244;2023-05-08T07:44:24;15.70;99.90
7194;DHT22;3638;48.820;9.244;2023-05-08T07:49:18;15.70;99.90
7194;DHT22;3638;48.820;9.244;2023-05-08T07:51:45;16.00;99.90
7194;DHT22;3638;48.820;9.244;2023-05-08T07:56:40;16.80;99.90
7194;DHT22;3638;48.820;9.244;2023-05-08T07:59:07;17.10;99.90
7194;DHT22;3638;48.820;9.244;2023-05-08T08:01:34;17.40;99.90
7194;DHT22;3638;48.820;9.244;2023-05-08T08:04:01;17.50;99.90
7194;DHT22;3638;48.820;9.244;2023-05-08T08:06:28;17.50;99.90
7194;DHT22;3638;48.820;9.244;2023-05-08T08:08:54;17.50;99.90
7194;DHT22;3638;48.820;9.244;2023-05-08T08:11:21;17.30;99.90
7194;DHT22;3638;48.820;9.244;2023-05-08T08:13:50;17.10;99.90
7194;DHT22;3638;48.820;9.244;2023-05-08T08:18:44;17.30;99.90
7194;DHT22;3638;48.820;9.244;2023-05-08T08:21:11;16.20;99.90
7194;DHT22;3638;48.820;9.244;2023-05-08T08:23:37;18.00;99.90
7194;DHT22;3638;48.820;9.244;2023-05-08T08:26:04;17.90;99.90
7194;DHT22;3638;48.820;9.244;2023-05-08T08:28:31;18.00;99.90
7194;DHT22;3638;48.820;9.244;2023-05-08T08:30:59;18.10;99.90
7194;DHT22;3638;48.820;9.244;2023-05-08T08:33:26;18.20;99.90
7194;DHT22;3638;48.820;9.244;2023-05-08T08:35:54;18.40;99.90
7194;DHT22;3638;48.820;9.244;2023-05-08T08:38:21;18.70;99.90
7194;DHT22;3638;48.820;9.244;2023-05-08T08:40:47;21.00;99.90
7194;DHT22;3638;48.820;9.244;2023-05-08T08:43:14;18.30;99.90
7194;DHT22;3638;48.820;9.244;2023-05-08T08:45:41;18.40;99.90
7194;DHT22;3638;48.820;9.244;2023-05-08T08:48:10;18.50;99.90
7194;DHT22;3638;48.820;9.244;2023-05-08T08:50:41;18.00;99.90
7194;DHT22;3638;48.820;9.244;2023-05-08T08:53:11;17.80;99.90
7194;DHT22;3638;48.820;9.244;2023-05-08T08:55:44;17.90;99.90
7194;DHT22;3638;48.820;9.244;2023-05-08T08:58:16;18.00;99.90
7194;DHT22;3638;48.820;9.244;2023-05-08T09:00:47;17.90;99.90
7194;DHT22;3638;48.820;9.244;2023-05-08T09:03:16;17.90;99.90
7194;DHT22;3638;48.820;9.244;2023-05-08T09:05:43;17.70;99.90
7194;DHT22;3638;48.820;9.244;2023-05-08T09:08:11;17.60;99.90
7194;DHT22;3638;48.820;9.244;2023-05-08T09:10:38;17.60;99.90
7194;DHT22;3638;48.820;9.244;2023-05-08T09:13:05;17.60;99.90
7194;DHT22;3638;48.820;9.244;2023-05-08T09:18:00;17.60;99.90
7194;DHT22;3638;48.820;9.244;2023-05-08T09:20:29;17.50;99.90
7194;DHT22;3638;48.820;9.244;2023-05-08T09:22:57;17.20;99.90
7194;DHT22;3638;48.820;9.244;2023-05-08T09:25:40;17.20;99.90
7194;DHT22;3638;48.820;9.244;2023-05-08T09:28:18;17.20;99.90
7194;DHT22;3638;48.820;9.244;2023-05-08T09:30:52;17.30;99.90
7194;DHT22;3638;48.820;9.244;2023-05-08T09:33:21;17.60;99.90
7194;DHT22;3638;48.820;9.244;2023-05-08T09:35:50;17.90;99.90
7194;DHT22;3638;48.820;9.244;2023-05-08T09:38:35;18.20;99.90
7194;DHT22;3638;48.820;9.244;2023-05-08T09:41:07;18.40;99.90
7194;DHT22;3638;48.820;9.244;2023-05-08T09:43:34;18.50;99.90
7194;DHT22;3638;48.820;9.244;2023-05-08T09:46:19;18.40;99.90
7194;DHT22;3638;48.820;9.244;2023-05-08T09:48:47;18.40;99.90
7194;DHT22;3638;48.820;9.244;2023-05-08T09:51:16;18.60;99.90
7194;DHT22;3638;48.820;9.244;2023-05-08T09:53:43;18.90;99.90
7194;DHT22;3638;48.820;9.244;2023-05-08T09:56:10;19.00;99.90
7194;DHT22;3638;48.820;9.244;2023-05-08T09:58:37;19.50;99.90
7194;DHT22;3638;48.820;9.244;2023-05-08T10:01:04;19.70;99.90
7194;DHT22;3638;48.820;9.244;2023-05-08T10:03:48;19.80;99.90
7194;DHT22;3638;48.820;9.244;2023-05-08T10:06:17;19.40;99.90
7194;DHT22;3638;48.820;9.244;2023-05-08T10:08:44;19.50;99.90
7194;DHT22;3638;48.820;9.244;2023-05-08T10:11:13;19.50;99.90
7194;DHT22;3638;48.820;9.244;2023-05-08T10:13:40;19.40;99.90
7194;DHT22;3638;48.820;9.244;2023-05-08T10:16:13;19.10;99.90
7194;DHT22;3638;48.820;9.244;2023-05-08T10:18:45;19.10;99.90
7194;DHT22;3638;48.820;9.244;2023-05-08T10:21:14;19.20;99.90
7194;DHT22;3638;48.820;9.244;2023-05-08T10:23:48;19.10;99.90
7194;DHT22;3638;48.820;9.244;2023-05-08T10:26:22;19.00;99.90
7194;DHT22;3638;48.820;9.244;2023-05-08T10:28:55;19.10;99.90
7194;DHT22;3638;48.820;9.244;2023-05-08T10:31:24;19.10;99.90
7194;DHT22;3638;48.820;9.244;2023-05-08T10:33:54;18.80;99.90
7194;DHT22;3638;48.820;9.244;2023-05-08T10:36:23;18.80;99.90
7194;DHT22;3638;48.820;9.244;2023-05-08T10:38:53;19.00;99.90
7194;DHT22;3638;48.820;9.244;2023-05-08T10:41:21;18.90;99.90
7194;DHT22;3638;48.820;9.244;2023-05-08T10:43:49;18.70;99.90
7194;DHT22;3638;48.820;9.244;2023-05-08T10:46:21;18.40;99.90
7194;DHT22;3638;48.820;9.244;2023-05-08T10:48:58;18.40;99.90
7194;DHT22;3638;48.820;9.244;2023-05-08T10:51:36;18.30;99.90
7194;DHT22;3638;48.820;9.244;2023-05-08T10:54:10;18.00;99.90
7194;DHT22;3638;48.820;9.244;2023-05-08T10:56:39;17.70;99.90
7194;DHT22;3638;48.820;9.244;2023-05-08T10:59:06;17.70;99.90
7194;DHT22;3638;48.820;9.244;2023-05-08T11:01:46;17.70;99.90
7194;DHT22;3638;48.820;9.244;2023-05-08T11:04:18;17.60;99.90
7194;DHT22;3638;48.820;9.244;2023-05-08T11:06:48;17.60;99.90
7194;DHT22;3638;48.820;9.244;2023-05-08T11:09:21;17.70;99.90
7194;DHT22;3638;48.820;9.244;2023-05-08T11:12:09;17.70;99.90
7194;DHT22;3638;48.820;9.244;2023-05-08T11:14:53;18.00;99.90
7194;DHT22;3638;48.820;9.244;2023-05-08T11:17:23;18.20;99.90
7194;DHT22;3638;48.820;9.244;2023-05-08T11:19:55;18.20;99.90
7194;DHT22;3638;48.820;9.244;2023-05-08T11:22:27;18.30;99.90
7194;DHT22;3638;48.820;9.244;2023-05-08T11:24:57;18.30;99.90
7194;DHT22;3638;48.820;9.244;2023-05-08T11:27:36;18.80;99.90
7194;DHT22;3638;48.820;9.244;2023-05-08T11:30:24;18.70;99.90
7194;DHT22;3638;48.820;9.244;2023-05-08T11:33:30;18.90;99.90
7194;DHT22;3638;48.820;9.244;2023-05-08T11:35:59;19.40;99.90
7194;DHT22;3638;48.820;9.244;2023-05-08T11:38:30;19.80;99.90
7194;DHT22;3638;48.820;9.244;2023-05-08T11:41:03;20.40;99.90
7194;DHT22;3638;48.820;9.244;2023-05-08T11:44:09;20.80;99.90
7194;DHT22;3638;48.820;9.244;2023-05-08T11:46:49;21.10;99.90
7194;DHT22;3638;48.820;9.244;2023-05-08T11:49:18;20.80;99.90
7194;DHT22;3638;48.820;9.244;2023-05-08T11:51:48;20.80;99.90
7194;DHT22;3638;48.820;9.244;2023-05-08T11:54:21;21.00;99.90
7194;DHT22;3638;48.820;9.244;2023-05-08T11:56:49;21.00;99.90
7194;DHT22;3638;48.820;9.244;2023-05-08T11:59:17;20.10;99.90
7194;DHT22;3638;48.820;9.244;2023-05-08T12:01:44;19.90;99.90
7194;DHT22;3638;48.820;9.244;2023-05-08T12:04:14;19.50;99.90
7194;DHT22;3638;48.820;9.244;2023-05-08T12:06:41;19.30;99.90
7194;DHT22;3638;48.820;9.244;2023-05-08T12:09:10;19.70;99.90
7194;DHT22;3638;48.820;9.244;2023-05-08T12:11:39;19.70;99.90
7194;DHT22;3638;48.820;9.244;2023-05-08T12:14:08;20.00;99.90
7194;DHT22;3638;48.820;9.244;2023-05-08T12:16:36;20.10;99.90
7194;DHT22;3638;48.820;9.244;2023-05-08T12:19:09;20.50;99.90
7194;DHT22;3638;48.820;9.244;2023-05-08T12:21:36;20.80;99.90
7194;DHT22;3638;48.820;9.244;2023-05-08T12:24:05;20.90;99.90
7194;DHT22;3638;48.820;9.244;2023-05-08T12:26:34;21.00;99.90
7194;DHT22;3638;48.820;9.244;2023-05-08T12:29:05;20.90;99.90
7194;DHT22;3638;48.820;9.244;2023-05-08T12:31:33;20.80;99.90
7194;DHT22;3638;48.820;9.244;2023-05-08T12:34:01;20.20;99.90
7194;DHT22;3638;48.820;9.244;2023-05-08T12:36:32;20.20;99.90
7194;DHT22;3638;48.820;9.244;2023-05-08T12:39:10;20.30;99.90
7194;DHT22;3638;48.820;9.244;2023-05-08T12:41:41;20.70;99.90
7194;DHT22;3638;48.820;9.244;2023-05-08T12:44:22;21.00;99.90
7194;DHT22;3638;48.820;9.244;2023-05-08T12:46:50;21.00;99.90
7194;DHT22;3638;48.820;9.244;2023-05-08T12:49:28;20.80;99.90
7194;DHT22;3638;48.820;9.244;2023-05-08T12:52:03;20.90;99.90
7194;DHT22;3638;48.820;9.244;2023-05-08T12:54:32;21.10;99.90
7194;DHT22;3638;48.820;9.244;2023-05-08T12:57:08;21.30;99.90
7194;DHT22;3638;48.820;9.244;2023-05-08T12:59:37;21.40;99.90
7194;DHT22;3638;48.820;9.244;2023-05-08T13:02:11;21.20;99.90
7194;DHT22;3638;48.820;9.244;2023-05-08T13:04:39;21.40;99.90
7194;DHT22;3638;48.820;9.244;2023-05-08T13:07:06;21.70;99.90
7194;DHT22;3638;48.820;9.244;2023-05-08T13:09:33;21.40;99.90
7194;DHT22;3638;48.820;9.244;2023-05-08T13:12:01;20.90;99.90
7194;DHT22;3638;48.820;9.244;2023-05-08T13:14:27;20.60;99.90
7194;DHT22;3638;48.820;9.244;2023-05-08T13:16:56;20.40;99.90
7194;DHT22;3638;48.820;9.244;2023-05-08T13:19:24;20.30;99.90
7194;DHT22;3638;48.820;9.244;2023-05-08T13:21:51;20.20;99.90
7194;DHT22;3638;48.820;9.244;2023-05-08T13:24:18;20.00;99.90
7194;DHT22;3638;48.820;9.244;2023-05-08T13:26:46;19.90;99.90
7194;DHT22;3638;48.820;9.244;2023-05-08T13:29:13;20.00;99.90
7194;DHT22;3638;48.820;9.244;2023-05-08T13:31:40;20.10;99.90
7194;DHT22;3638;48.820;9.244;2023-05-08T13:34:08;19.70;99.90
7194;DHT22;3638;48.820;9.244;2023-05-08T13:36:35;19.60;99.90
7194;DHT22;3638;48.820;9.244;2023-05-08T13:39:02;19.60;99.90
7194;DHT22;3638;48.820;9.244;2023-05-08T13:41:32;19.50;99.90
7194;DHT22;3638;48.820;9.244;2023-05-08T13:46:26;19.60;99.90
7194;DHT22;3638;48.820;9.244;2023-05-08T13:48:53;19.50;99.90
7194;DHT22;3638;48.820;9.244;2023-05-08T13:51:21;19.50;99.90
7194;DHT22;3638;48.820;9.244;2023-05-08T13:53:48;19.40;99.90
7194;DHT22;3638;48.820;9.244;2023-05-08T13:56:15;19.20;99.90
7194;DHT22;3638;48.820;9.244;2023-05-08T14:06:04;19.20;99.90
7194;DHT22;3638;48.820;9.244;2023-05-08T14:08:32;19.30;99.90
7194;DHT22;3638;48.820;9.244;2023-05-08T14:10:59;19.20;99.90
7194;DHT22;3638;48.820;9.244;2023-05-08T14:13:26;19.20;99.90
7194;DHT22;3638;48.820;9.244;2023-05-08T14:15:53;19.10;99.90
7194;DHT22;3638;48.820;9.244;2023-05-08T14:18:20;19.00;99.90
7194;DHT22;3638;48.820;9.244;2023-05-08T14:20:46;19.00;99.90
7194;DHT22;3638;48.820;9.244;2023-05-08T14:23:13;18.90;99.90
7194;DHT22;3638;48.820;9.244;2023-05-08T14:25:42;18.90;99.90
7194;DHT22;3638;48.820;9.244;2023-05-08T14:28:08;19.00;99.90
7194;DHT22;3638;48.820;9.244;2023-05-08T14:30:35;19.00;99.90
7194;DHT22;3638;48.820;9.244;2023-05-08T14:33:02;19.10;99.90
7194;DHT22;3638;48.820;9.244;2023-05-08T14:35:29;18.90;99.90
7194;DHT22;3638;48.820;9.244;2023-05-08T14:37:56;19.00;99.90
7194;DHT22;3638;48.820;9.244;2023-05-08T14:40:23;18.70;99.90
7194;DHT22;3638;48.820;9.244;2023-05-08T14:42:51;18.80;99.90
7194;DHT22;3638;48.820;9.244;2023-05-08T14:45:18;18.80;99.90
7194;DHT22;3638;48.820;9.244;2023-05-08T14:55:08;18.80;99.90
7194;DHT22;3638;48.820;9.244;2023-05-08T14:57:35;18.70;99.90
7194;DHT22;3638;48.820;9.244;2023-05-08T15:00:05;18.70;99.90
7194;DHT22;3638;48.820;9.244;2023-05-08T15:02:32;18.70;99.90
7194;DHT22;3638;48.820;9.244;2023-05-08T15:04:59;18.90;99.90
7194;DHT22;3638;48.820;9.244;2023-05-08T15:09:53;18.80;99.90
7194;DHT22;3638;48.820;9.244;2023-05-08T15:12:20;18.80;99.90
7194;DHT22;3638;48.820;9.244;2023-05-08T15:14:47;18.90;99.90
7194;DHT22;3638;48.820;9.244;2023-05-08T15:17:15;19.00;99.90
7194;DHT22;3638;48.820;9.244;2023-05-08T15:19:42;19.10;99.90
7194;DHT22;3638;48.820;9.244;2023-05-08T15:22:10;19.20;99.90
7194;DHT22;3638;48.820;9.244;2023-05-08T15:24:37;19.20;99.90
7194;DHT22;3638;48.820;9.244;2023-05-08T15:27:04;19.20;99.90
7194;DHT22;3638;48.820;9.244;2023-05-08T15:29:31;19.00;99.90
7194;DHT22;3638;48.820;9.244;2023-05-08T15:31:58;18.90;99.90
7194;DHT22;3638;48.820;9.244;2023-05-08T15:34:26;19.00;99.90
7194;DHT22;3638;48.820;9.244;2023-05-08T15:36:53;19.10;99.90
7194;DHT22;3638;48.820;9.244;2023-05-08T15:39:20;19.10;99.90
7194;DHT22;3638;48.820;9.244;2023-05-08T15:41:47;19.40;99.90
7194;DHT22;3638;48.820;9.244;2023-05-08T15:44:14;19.50;99.90
7194;DHT22;3638;48.820;9.244;2023-05-08T15:46:44;19.50;99.90
7194;DHT22;3638;48.820;9.244;2023-05-08T15:49:10;19.60;99.90
7194;DHT22;3638;48.820;9.244;2023-05-08T15:51:39;19.70;99.90
7194;DHT22;3638;48.820;9.244;2023-05-08T15:54:06;19.80;99.90
7194;DHT22;3638;48.820;9.244;2023-05-08T15:56:33;19.70;99.90
7194;DHT22;3638;48.820;9.244;2023-05-08T15:59:00;19.60;99.90
7194;DHT22;3638;48.820;9.244;2023-05-08T16:01:27;19.50;99.90
7194;DHT22;3638;48.820;9.244;2023-05-08T16:03:54;19.30;99.90
7194;DHT22;3638;48.820;9.244;2023-05-08T16:06:21;19.20;99.90
7194;DHT22;3638;48.820;9.244;2023-05-08T16:08:50;19.00;99.90
7194;DHT22;3638;48.820;9.244;2023-05-08T16:11:17;18.00;99.90
7194;DHT22;3638;48.820;9.244;2023-05-08T16:13:43;18.80;99.90
7194;DHT22;3638;48.820;9.244;2023-05-08T16:16:10;18.90;99.90
7194;DHT22;3638;48.820;9.244;2023-05-08T16:18:37;18.90;99.90
7194;DHT22;3638;48.820;9.244;2023-05-08T16:21:07;18.90;99.90
7194;DHT22;3638;48.820;9.244;2023-05-08T16:23:34;18.60;99.90
7194;DHT22;3638;48.820;9.244;2023-05-08T16:26:02;18.60;99.90
7194;DHT22;3638;48.820;9.244;2023-05-08T16:28:30;18.60;99.90
7194;DHT22;3638;48.820;9.244;2023-05-08T16:30:56;18.70;99.90
7194;DHT22;3638;48.820;9.244;2023-05-08T16:33:23;22.70;99.90
7194;DHT22;3638;48.820;9.244;2023-05-08T16:35:50;18.70;99.90
7194;DHT22;3638;48.820;9.244;2023-05-08T16:38:17;18.70;99.90
7194;DHT22;3638;48.820;9.244;2023-05-08T16:40:44;18.60;99.90
7194;DHT22;3638;48.820;9.244;2023-05-08T16:43:12;18.60;99.90
7194;DHT22;3638;48.820;9.244;2023-05-08T16:45:39;18.60;99.90
7194;DHT22;3638;48.820;9.244;2023-05-08T16:48:07;18.60;99.90
7194;DHT22;3638;48.820;9.244;2023-05-08T16:55:29;18.70;99.90
7194;DHT22;3638;48.820;9.244;2023-05-08T16:57:56;18.70;99.90
7194;DHT22;3638;48.820;9.244;2023-05-08T17:00:24;18.70;99.90
7194;DHT22;3638;48.820;9.244;2023-05-08T17:02:51;18.70;99.90
7194;DHT22;3638;48.820;9.244;2023-05-08T17:05:18;18.60;99.90
7194;DHT22;3638;48.820;9.244;2023-05-08T17:07:45;18.60;99.90
7194;DHT22;3638;48.820;9.244;2023-05-08T17:10:12;18.60;99.90
7194;DHT22;3638;48.820;9.244;2023-05-08T17:12:39;18.60;99.90
7194;DHT22;3638;48.820;9.244;2023-05-08T17:15:07;18.60;99.90
7194;DHT22;3638;48.820;9.244;2023-05-08T17:17:35;18.60;99.90
7194;DHT22;3638;48.820;9.244;2023-05-08T17:20:03;18.60;99.90
7194;DHT22;3638;48.820;9.244;2023-05-08T17:22:30;18.70;99.90
7194;DHT22;3638;48.820;9.244;2023-05-08T17:24:57;18.70;99.90
7194;DHT22;3638;48.820;9.244;2023-05-08T17:29:53;18.60;99.90
7194;DHT22;3638;48.820;9.244;2023-05-08T17:32:20;18.60;99.90
7194;DHT22;3638;48.820;9.244;2023-05-08T17:34:48;18.60;99.90
7194;DHT22;3638;48.820;9.244;2023-05-08T17:37:15;18.60;99.90
7194;DHT22;3638;48.820;9.244;2023-05-08T17:39:42;18.50;99.90
7194;DHT22;3638;48.820;9.244;2023-05-08T17:42:09;18.40;99.90
7194;DHT22;3638;48.820;9.244;2023-05-08T17:44:36;18.40;99.90